Saint Mary, Nebraska
Current Conditions -  °F | °C
As of 9:15 AM on Monday 24 Nov 2014 (Local Time) from KBIE Reporting Station
Overcast Overcast  
Wind Chill: 19°   Ceiling: 3100
Heat Index: 32°   Visibility: 10mi
Dew Point: 20°   Wind: 23mph
Humidity: 62%   Direction: 310°NW
Pressure: 29.74"   Gusts: 29mph
Location:  40.4616°N, 96.3476°W
Report Text: KBIE 241515Z AUTO 31020G25KT 10SM OVC031 00/M07 A2974 RMK AO2 T10021066
Loading
Personal Weather Stations






























Interactive Weather Map New forecast layout! Learn more

10-Day Weather Forecast

Advertisements
Track Severe Weather on mobile